Terminal Aerodrome Forecast
Issued by NWS Jackson, MS

Home | Current Version | Previous Version | Text Only | Print | Product List | Glossary On
Versions: 1 2 3 4 5 6 7 8 9 10 11 12 13 14
000
FTUS44 KJAN 011100 RRA
TAFHBG
TAF
KHBG 011154Z 0112/0212 16010KT P6SM -RA SCT030 BKN060 OVC090
     FM011600 20009G18KT P6SM VCSH BKN015 BKN025
      TEMPO 0202/0205 5SM TSRA OVC015CB
     FM020500 30011G19KT P6SM BKN025 BKN035=

USA.gov is the U.S. government's official web portal to all federal, state and local government web resources and services.